sensor_id;sensor_type;location;lat;lon;timestamp;P1;durP1;ratioP1;P2;durP2;ratioP2
18623;SDS011;9441;51.420;7.036;2023-04-25T00:00:10;24.17;;;6.30;;
18623;SDS011;9441;51.420;7.036;2023-04-25T00:01:13;20.27;;;6.50;;
18623;SDS011;9441;51.420;7.036;2023-04-25T00:02:15;18.27;;;6.10;;
18623;SDS011;9441;51.420;7.036;2023-04-25T00:03:18;14.53;;;5.33;;
18623;SDS011;9441;51.420;7.036;2023-04-25T00:04:19;20.23;;;6.90;;
18623;SDS011;9441;51.420;7.036;2023-04-25T00:05:22;14.83;;;5.77;;
18623;SDS011;9441;51.420;7.036;2023-04-25T00:06:23;16.13;;;5.93;;
18623;SDS011;9441;51.420;7.036;2023-04-25T00:07:27;15.50;;;5.57;;
18623;SDS011;9441;51.420;7.036;2023-04-25T00:08:28;22.13;;;6.17;;
18623;SDS011;9441;51.420;7.036;2023-04-25T00:09:31;19.60;;;5.90;;
18623;SDS011;9441;51.420;7.036;2023-04-25T00:10:33;17.33;;;5.60;;
18623;SDS011;9441;51.420;7.036;2023-04-25T00:11:35;20.03;;;6.60;;
18623;SDS011;9441;51.420;7.036;2023-04-25T00:12:37;19.10;;;6.00;;
18623;SDS011;9441;51.420;7.036;2023-04-25T00:13:39;20.77;;;6.00;;
18623;SDS011;9441;51.420;7.036;2023-04-25T00:14:43;14.77;;;5.80;;
18623;SDS011;9441;51.420;7.036;2023-04-25T00:15:45;19.07;;;6.03;;
18623;SDS011;9441;51.420;7.036;2023-04-25T00:16:48;15.93;;;5.63;;
18623;SDS011;9441;51.420;7.036;2023-04-25T00:17:51;19.13;;;5.40;;
18623;SDS011;9441;51.420;7.036;2023-04-25T00:18:53;15.50;;;5.70;;
18623;SDS011;9441;51.420;7.036;2023-04-25T00:19:55;17.47;;;5.83;;
18623;SDS011;9441;51.420;7.036;2023-04-25T00:20:58;18.43;;;6.07;;
18623;SDS011;9441;51.420;7.036;2023-04-25T00:22:00;15.03;;;5.73;;
18623;SDS011;9441;51.420;7.036;2023-04-25T00:23:02;14.80;;;5.57;;
18623;SDS011;9441;51.420;7.036;2023-04-25T00:24:04;17.27;;;5.83;;
18623;SDS011;9441;51.420;7.036;2023-04-25T00:25:06;14.37;;;5.37;;
18623;SDS011;9441;51.420;7.036;2023-04-25T00:26:09;13.73;;;4.97;;
18623;SDS011;9441;51.420;7.036;2023-04-25T00:27:10;17.37;;;5.30;;
18623;SDS011;9441;51.420;7.036;2023-04-25T00:28:13;15.93;;;5.80;;
18623;SDS011;9441;51.420;7.036;2023-04-25T00:29:15;14.33;;;5.20;;
18623;SDS011;9441;51.420;7.036;2023-04-25T00:30:18;12.40;;;5.00;;
18623;SDS011;9441;51.420;7.036;2023-04-25T00:31:21;21.00;;;5.37;;
18623;SDS011;9441;51.420;7.036;2023-04-25T00:32:22;13.53;;;5.53;;
18623;SDS011;9441;51.420;7.036;2023-04-25T00:33:25;19.43;;;5.30;;
18623;SDS011;9441;51.420;7.036;2023-04-25T00:34:26;16.83;;;5.53;;
18623;SDS011;9441;51.420;7.036;2023-04-25T00:35:29;11.97;;;5.07;;
18623;SDS011;9441;51.420;7.036;2023-04-25T00:36:30;17.90;;;6.23;;
18623;SDS011;9441;51.420;7.036;2023-04-25T00:37:32;19.20;;;5.30;;
18623;SDS011;9441;51.420;7.036;2023-04-25T00:38:34;18.47;;;5.50;;
18623;SDS011;9441;51.420;7.036;2023-04-25T00:39:38;15.47;;;5.40;;
18623;SDS011;9441;51.420;7.036;2023-04-25T00:40:39;16.83;;;5.83;;
18623;SDS011;9441;51.420;7.036;2023-04-25T00:41:44;9.23;;;4.77;;
18623;SDS011;9441;51.420;7.036;2023-04-25T00:42:46;15.03;;;5.50;;
18623;SDS011;9441;51.420;7.036;2023-04-25T00:43:48;13.43;;;4.90;;
18623;SDS011;9441;51.420;7.036;2023-04-25T00:44:50;12.73;;;5.27;;
18623;SDS011;9441;51.420;7.036;2023-04-25T00:45:55;10.37;;;4.70;;
18623;SDS011;9441;51.420;7.036;2023-04-25T00:46:58;13.57;;;5.10;;
18623;SDS011;9441;51.420;7.036;2023-04-25T00:48:01;17.07;;;5.07;;
18623;SDS011;9441;51.420;7.036;2023-04-25T00:49:03;12.80;;;5.53;;
18623;SDS011;9441;51.420;7.036;2023-04-25T00:50:06;18.23;;;5.10;;
18623;SDS011;9441;51.420;7.036;2023-04-25T00:51:07;21.00;;;5.40;;
18623;SDS011;9441;51.420;7.036;2023-04-25T00:52:11;15.93;;;5.13;;
18623;SDS011;9441;51.420;7.036;2023-04-25T00:53:12;17.03;;;5.10;;
18623;SDS011;9441;51.420;7.036;2023-04-25T00:54:15;14.43;;;4.90;;
18623;SDS011;9441;51.420;7.036;2023-04-25T00:55:17;22.30;;;5.30;;
18623;SDS011;9441;51.420;7.036;2023-04-25T00:56:19;9.07;;;4.93;;
18623;SDS011;9441;51.420;7.036;2023-04-25T00:57:21;19.03;;;5.53;;
18623;SDS011;9441;51.420;7.036;2023-04-25T00:58:23;16.33;;;5.57;;
18623;SDS011;9441;51.420;7.036;2023-04-25T00:59:25;15.17;;;5.20;;
18623;SDS011;9441;51.420;7.036;2023-04-25T01:00:27;23.30;;;5.33;;
18623;SDS011;9441;51.420;7.036;2023-04-25T01:01:30;17.37;;;5.90;;
18623;SDS011;9441;51.420;7.036;2023-04-25T01:02:33;12.23;;;5.30;;
18623;SDS011;9441;51.420;7.036;2023-04-25T01:03:37;15.50;;;5.07;;
18623;SDS011;9441;51.420;7.036;2023-04-25T01:04:41;17.60;;;5.50;;
18623;SDS011;9441;51.420;7.036;2023-04-25T01:05:42;17.47;;;5.43;;
18623;SDS011;9441;51.420;7.036;2023-04-25T01:06:45;14.13;;;5.70;;
18623;SDS011;9441;51.420;7.036;2023-04-25T01:07:46;16.90;;;6.20;;
18623;SDS011;9441;51.420;7.036;2023-04-25T01:08:49;13.77;;;5.67;;
18623;SDS011;9441;51.420;7.036;2023-04-25T01:09:51;16.93;;;5.70;;
18623;SDS011;9441;51.420;7.036;2023-04-25T01:10:53;11.97;;;5.50;;
18623;SDS011;9441;51.420;7.036;2023-04-25T01:11:54;14.10;;;5.83;;
18623;SDS011;9441;51.420;7.036;2023-04-25T01:12:57;15.20;;;5.90;;
18623;SDS011;9441;51.420;7.036;2023-04-25T01:13:59;15.17;;;5.90;;
18623;SDS011;9441;51.420;7.036;2023-04-25T01:15:02;21.13;;;5.80;;
18623;SDS011;9441;51.420;7.036;2023-04-25T01:16:04;11.83;;;5.43;;
18623;SDS011;9441;51.420;7.036;2023-04-25T01:17:08;21.17;;;6.37;;
18623;SDS011;9441;51.420;7.036;2023-04-25T01:18:09;15.47;;;5.77;;
18623;SDS011;9441;51.420;7.036;2023-04-25T01:19:12;20.70;;;6.03;;
18623;SDS011;9441;51.420;7.036;2023-04-25T01:20:17;16.83;;;6.07;;
18623;SDS011;9441;51.420;7.036;2023-04-25T01:21:21;24.50;;;6.60;;
18623;SDS011;9441;51.420;7.036;2023-04-25T01:22:23;13.67;;;6.33;;
18623;SDS011;9441;51.420;7.036;2023-04-25T01:23:25;15.10;;;6.20;;
18623;SDS011;9441;51.420;7.036;2023-04-25T01:24:27;18.70;;;7.17;;
18623;SDS011;9441;51.420;7.036;2023-04-25T01:25:30;16.03;;;5.97;;
18623;SDS011;9441;51.420;7.036;2023-04-25T01:26:31;15.13;;;5.87;;
18623;SDS011;9441;51.420;7.036;2023-04-25T01:27:35;18.37;;;6.40;;
18623;SDS011;9441;51.420;7.036;2023-04-25T01:28:37;19.40;;;6.60;;
18623;SDS011;9441;51.420;7.036;2023-04-25T01:29:41;20.17;;;7.17;;
18623;SDS011;9441;51.420;7.036;2023-04-25T01:30:42;16.63;;;6.53;;
18623;SDS011;9441;51.420;7.036;2023-04-25T01:31:46;20.10;;;7.20;;
18623;SDS011;9441;51.420;7.036;2023-04-25T01:32:47;19.37;;;6.57;;
18623;SDS011;9441;51.420;7.036;2023-04-25T01:33:50;16.93;;;6.50;;
18623;SDS011;9441;51.420;7.036;2023-04-25T01:34:51;19.17;;;6.90;;
18623;SDS011;9441;51.420;7.036;2023-04-25T01:35:54;21.87;;;7.10;;
18623;SDS011;9441;51.420;7.036;2023-04-25T01:36:56;18.50;;;7.00;;
18623;SDS011;9441;51.420;7.036;2023-04-25T01:38:03;20.03;;;7.37;;
18623;SDS011;9441;51.420;7.036;2023-04-25T01:39:06;18.73;;;7.63;;
18623;SDS011;9441;51.420;7.036;2023-04-25T01:40:09;19.67;;;6.97;;
18623;SDS011;9441;51.420;7.036;2023-04-25T01:41:11;15.57;;;6.60;;
18623;SDS011;9441;51.420;7.036;2023-04-25T01:42:13;18.27;;;6.60;;
18623;SDS011;9441;51.420;7.036;2023-04-25T01:43:15;15.63;;;6.67;;
18623;SDS011;9441;51.420;7.036;2023-04-25T01:44:17;22.97;;;6.20;;
18623;SDS011;9441;51.420;7.036;2023-04-25T01:45:18;17.70;;;6.13;;
18623;SDS011;9441;51.420;7.036;2023-04-25T01:46:20;21.97;;;6.67;;
18623;SDS011;9441;51.420;7.036;2023-04-25T01:47:22;20.33;;;6.63;;
18623;SDS011;9441;51.420;7.036;2023-04-25T01:48:25;18.13;;;6.10;;
18623;SDS011;9441;51.420;7.036;2023-04-25T01:49:26;18.77;;;6.97;;
18623;SDS011;9441;51.420;7.036;2023-04-25T01:50:29;15.07;;;6.37;;
18623;SDS011;9441;51.420;7.036;2023-04-25T01:51:30;20.83;;;6.90;;
18623;SDS011;9441;51.420;7.036;2023-04-25T01:52:34;15.10;;;6.43;;
18623;SDS011;9441;51.420;7.036;2023-04-25T01:53:35;14.23;;;6.63;;
18623;SDS011;9441;51.420;7.036;2023-04-25T01:54:38;18.63;;;6.63;;
18623;SDS011;9441;51.420;7.036;2023-04-25T01:55:44;19.17;;;6.60;;
18623;SDS011;9441;51.420;7.036;2023-04-25T01:56:49;21.57;;;7.80;;
18623;SDS011;9441;51.420;7.036;2023-04-25T01:57:51;16.83;;;6.33;;
18623;SDS011;9441;51.420;7.036;2023-04-25T01:58:59;21.50;;;6.67;;
18623;SDS011;9441;51.420;7.036;2023-04-25T02:00:23;17.93;;;6.70;;
18623;SDS011;9441;51.420;7.036;2023-04-25T02:01:25;24.53;;;6.80;;
18623;SDS011;9441;51.420;7.036;2023-04-25T02:02:44;16.17;;;6.63;;
18623;SDS011;9441;51.420;7.036;2023-04-25T02:04:07;21.00;;;6.03;;
18623;SDS011;9441;51.420;7.036;2023-04-25T02:05:12;19.03;;;6.60;;
18623;SDS011;9441;51.420;7.036;2023-04-25T02:06:16;18.50;;;6.33;;
18623;SDS011;9441;51.420;7.036;2023-04-25T02:07:20;21.47;;;6.53;;
18623;SDS011;9441;51.420;7.036;2023-04-25T02:08:27;16.47;;;7.50;;
18623;SDS011;9441;51.420;7.036;2023-04-25T02:09:29;19.23;;;6.83;;
18623;SDS011;9441;51.420;7.036;2023-04-25T02:10:32;24.07;;;7.23;;
18623;SDS011;9441;51.420;7.036;2023-04-25T02:11:53;15.03;;;6.37;;
18623;SDS011;9441;51.420;7.036;2023-04-25T02:13:08;20.93;;;6.80;;
18623;SDS011;9441;51.420;7.036;2023-04-25T02:14:29;17.67;;;6.37;;
18623;SDS011;9441;51.420;7.036;2023-04-25T02:15:36;21.93;;;6.60;;
18623;SDS011;9441;51.420;7.036;2023-04-25T02:16:48;21.80;;;6.57;;
18623;SDS011;9441;51.420;7.036;2023-04-25T02:17:51;18.67;;;6.67;;
18623;SDS011;9441;51.420;7.036;2023-04-25T02:18:53;16.03;;;7.07;;
18623;SDS011;9441;51.420;7.036;2023-04-25T02:19:55;15.70;;;6.70;;
18623;SDS011;9441;51.420;7.036;2023-04-25T02:20:58;17.77;;;6.80;;
18623;SDS011;9441;51.420;7.036;2023-04-25T02:22:01;18.57;;;6.57;;
18623;SDS011;9441;51.420;7.036;2023-04-25T02:23:02;16.37;;;7.10;;
18623;SDS011;9441;51.420;7.036;2023-04-25T02:24:07;18.50;;;6.60;;
18623;SDS011;9441;51.420;7.036;2023-04-25T02:25:09;18.60;;;6.70;;
18623;SDS011;9441;51.420;7.036;2023-04-25T02:26:12;13.83;;;6.53;;
18623;SDS011;9441;51.420;7.036;2023-04-25T02:27:13;19.57;;;7.20;;
18623;SDS011;9441;51.420;7.036;2023-04-25T02:28:15;17.47;;;7.13;;
18623;SDS011;9441;51.420;7.036;2023-04-25T02:29:17;18.23;;;7.40;;
18623;SDS011;9441;51.420;7.036;2023-04-25T02:30:19;21.63;;;6.73;;
18623;SDS011;9441;51.420;7.036;2023-04-25T02:31:20;17.67;;;7.20;;
18623;SDS011;9441;51.420;7.036;2023-04-25T02:32:24;20.77;;;6.87;;
18623;SDS011;9441;51.420;7.036;2023-04-25T02:33:27;16.10;;;8.03;;
18623;SDS011;9441;51.420;7.036;2023-04-25T02:34:29;16.93;;;7.10;;
18623;SDS011;9441;51.420;7.036;2023-04-25T02:35:30;17.07;;;7.50;;
18623;SDS011;9441;51.420;7.036;2023-04-25T02:36:33;22.87;;;7.87;;
18623;SDS011;9441;51.420;7.036;2023-04-25T02:37:34;22.27;;;7.37;;
18623;SDS011;9441;51.420;7.036;2023-04-25T02:38:37;18.47;;;7.47;;
18623;SDS011;9441;51.420;7.036;2023-04-25T02:39:40;15.57;;;6.83;;
18623;SDS011;9441;51.420;7.036;2023-04-25T02:40:42;16.57;;;7.23;;
18623;SDS011;9441;51.420;7.036;2023-04-25T02:41:44;16.03;;;6.93;;
18623;SDS011;9441;51.420;7.036;2023-04-25T02:42:46;21.97;;;7.80;;
18623;SDS011;9441;51.420;7.036;2023-04-25T02:43:47;19.90;;;7.47;;
18623;SDS011;9441;51.420;7.036;2023-04-25T02:44:52;21.13;;;7.40;;
18623;SDS011;9441;51.420;7.036;2023-04-25T02:45:54;26.97;;;7.37;;
18623;SDS011;9441;51.420;7.036;2023-04-25T02:46:56;23.90;;;7.37;;
18623;SDS011;9441;51.420;7.036;2023-04-25T02:47:58;19.93;;;7.17;;
18623;SDS011;9441;51.420;7.036;2023-04-25T02:49:00;25.10;;;7.67;;
18623;SDS011;9441;51.420;7.036;2023-04-25T02:50:02;22.83;;;7.77;;
18623;SDS011;9441;51.420;7.036;2023-04-25T02:51:04;18.23;;;7.37;;
18623;SDS011;9441;51.420;7.036;2023-04-25T02:52:05;18.50;;;7.30;;
18623;SDS011;9441;51.420;7.036;2023-04-25T02:53:08;26.50;;;7.90;;
18623;SDS011;9441;51.420;7.036;2023-04-25T02:54:17;22.30;;;7.63;;
18623;SDS011;9441;51.420;7.036;2023-04-25T02:55:23;25.70;;;7.57;;
18623;SDS011;9441;51.420;7.036;2023-04-25T02:56:26;22.60;;;8.07;;
18623;SDS011;9441;51.420;7.036;2023-04-25T02:57:27;20.73;;;8.43;;
18623;SDS011;9441;51.420;7.036;2023-04-25T02:58:30;22.47;;;7.97;;
18623;SDS011;9441;51.420;7.036;2023-04-25T02:59:31;17.10;;;7.77;;
18623;SDS011;9441;51.420;7.036;2023-04-25T03:00:34;21.40;;;7.93;;
18623;SDS011;9441;51.420;7.036;2023-04-25T03:01:35;29.80;;;8.73;;
18623;SDS011;9441;51.420;7.036;2023-04-25T03:02:37;21.60;;;8.27;;
18623;SDS011;9441;51.420;7.036;2023-04-25T03:03:39;20.03;;;9.20;;
18623;SDS011;9441;51.420;7.036;2023-04-25T03:04:41;21.87;;;8.73;;
18623;SDS011;9441;51.420;7.036;2023-04-25T03:05:42;22.03;;;9.40;;
18623;SDS011;9441;51.420;7.036;2023-04-25T03:06:45;24.07;;;9.50;;
18623;SDS011;9441;51.420;7.036;2023-04-25T03:07:46;27.07;;;9.80;;
18623;SDS011;9441;51.420;7.036;2023-04-25T03:08:50;22.30;;;8.87;;
18623;SDS011;9441;51.420;7.036;2023-04-25T03:09:51;25.43;;;9.53;;
18623;SDS011;9441;51.420;7.036;2023-04-25T03:10:55;28.97;;;9.90;;
18623;SDS011;9441;51.420;7.036;2023-04-25T03:11:58;25.97;;;10.07;;
18623;SDS011;9441;51.420;7.036;2023-04-25T03:13:02;24.47;;;10.37;;
18623;SDS011;9441;51.420;7.036;2023-04-25T03:14:03;28.10;;;9.87;;
18623;SDS011;9441;51.420;7.036;2023-04-25T03:15:05;27.67;;;9.53;;
18623;SDS011;9441;51.420;7.036;2023-04-25T03:16:07;24.57;;;9.97;;
18623;SDS011;9441;51.420;7.036;2023-04-25T03:17:10;21.97;;;9.43;;
18623;SDS011;9441;51.420;7.036;2023-04-25T03:18:11;28.60;;;9.80;;
18623;SDS011;9441;51.420;7.036;2023-04-25T03:19:13;23.63;;;9.83;;
18623;SDS011;9441;51.420;7.036;2023-04-25T03:20:17;30.43;;;10.73;;
18623;SDS011;9441;51.420;7.036;2023-04-25T03:21:19;29.60;;;9.80;;
18623;SDS011;9441;51.420;7.036;2023-04-25T03:22:21;23.27;;;9.70;;
18623;SDS011;9441;51.420;7.036;2023-04-25T03:23:23;24.73;;;10.03;;
18623;SDS011;9441;51.420;7.036;2023-04-25T03:24:25;21.53;;;10.07;;
18623;SDS011;9441;51.420;7.036;2023-04-25T03:25:27;24.60;;;10.20;;
18623;SDS011;9441;51.420;7.036;2023-04-25T03:26:30;34.47;;;10.07;;
18623;SDS011;9441;51.420;7.036;2023-04-25T03:27:33;25.33;;;9.87;;
18623;SDS011;9441;51.420;7.036;2023-04-25T03:28:36;26.90;;;10.70;;
18623;SDS011;9441;51.420;7.036;2023-04-25T03:29:40;28.10;;;10.43;;
18623;SDS011;9441;51.420;7.036;2023-04-25T03:30:42;26.27;;;9.70;;
18623;SDS011;9441;51.420;7.036;2023-04-25T03:31:45;25.73;;;9.77;;
18623;SDS011;9441;51.420;7.036;2023-04-25T03:32:46;21.87;;;9.50;;
18623;SDS011;9441;51.420;7.036;2023-04-25T03:33:51;20.10;;;9.50;;
18623;SDS011;9441;51.420;7.036;2023-04-25T03:34:54;24.03;;;9.63;;
18623;SDS011;9441;51.420;7.036;2023-04-25T03:35:59;25.93;;;10.30;;
18623;SDS011;9441;51.420;7.036;2023-04-25T03:37:02;25.07;;;10.73;;
18623;SDS011;9441;51.420;7.036;2023-04-25T03:38:08;25.00;;;10.50;;
18623;SDS011;9441;51.420;7.036;2023-04-25T03:39:13;25.90;;;10.70;;
18623;SDS011;9441;51.420;7.036;2023-04-25T03:40:20;22.73;;;11.07;;
18623;SDS011;9441;51.420;7.036;2023-04-25T03:41:42;26.83;;;9.97;;
18623;SDS011;9441;51.420;7.036;2023-04-25T03:42:47;24.17;;;10.27;;
18623;SDS011;9441;51.420;7.036;2023-04-25T03:43:49;26.80;;;10.63;;
18623;SDS011;9441;51.420;7.036;2023-04-25T03:44:51;32.57;;;10.67;;
18623;SDS011;9441;51.420;7.036;2023-04-25T03:45:53;26.40;;;10.93;;
18623;SDS011;9441;51.420;7.036;2023-04-25T03:46:57;27.13;;;10.43;;
18623;SDS011;9441;51.420;7.036;2023-04-25T03:47:59;29.77;;;11.33;;
18623;SDS011;9441;51.420;7.036;2023-04-25T03:49:02;31.27;;;10.83;;
18623;SDS011;9441;51.420;7.036;2023-04-25T03:50:24;21.80;;;9.83;;
18623;SDS011;9441;51.420;7.036;2023-04-25T03:51:26;26.63;;;11.07;;
18623;SDS011;9441;51.420;7.036;2023-04-25T03:52:29;25.93;;;10.70;;
18623;SDS011;9441;51.420;7.036;2023-04-25T03:53:30;34.87;;;11.00;;
18623;SDS011;9441;51.420;7.036;2023-04-25T03:54:51;28.17;;;10.53;;
18623;SDS011;9441;51.420;7.036;2023-04-25T03:55:55;30.10;;;10.80;;
18623;SDS011;9441;51.420;7.036;2023-04-25T03:56:59;22.60;;;10.83;;
18623;SDS011;9441;51.420;7.036;2023-04-25T03:58:02;26.23;;;10.90;;
18623;SDS011;9441;51.420;7.036;2023-04-25T03:59:05;29.13;;;11.10;;
18623;SDS011;9441;51.420;7.036;2023-04-25T04:00:08;32.17;;;10.63;;
18623;SDS011;9441;51.420;7.036;2023-04-25T04:01:16;22.33;;;10.27;;
18623;SDS011;9441;51.420;7.036;2023-04-25T04:02:17;21.90;;;10.23;;
18623;SDS011;9441;51.420;7.036;2023-04-25T04:03:20;29.73;;;11.33;;
18623;SDS011;9441;51.420;7.036;2023-04-25T04:04:21;32.80;;;10.77;;
18623;SDS011;9441;51.420;7.036;2023-04-25T04:05:24;29.63;;;10.37;;
18623;SDS011;9441;51.420;7.036;2023-04-25T04:06:29;24.97;;;10.17;;
18623;SDS011;9441;51.420;7.036;2023-04-25T04:07:38;30.43;;;11.00;;
18623;SDS011;9441;51.420;7.036;2023-04-25T04:08:42;25.57;;;10.33;;
18623;SDS011;9441;51.420;7.036;2023-04-25T04:09:45;28.70;;;10.80;;
18623;SDS011;9441;51.420;7.036;2023-04-25T04:10:52;26.30;;;10.13;;
18623;SDS011;9441;51.420;7.036;2023-04-25T04:11:54;28.37;;;10.10;;
18623;SDS011;9441;51.420;7.036;2023-04-25T04:12:57;30.03;;;10.40;;
18623;SDS011;9441;51.420;7.036;2023-04-25T04:13:59;26.90;;;10.20;;
18623;SDS011;9441;51.420;7.036;2023-04-25T04:15:01;27.07;;;9.53;;
18623;SDS011;9441;51.420;7.036;2023-04-25T04:16:04;30.17;;;9.77;;
18623;SDS011;9441;51.420;7.036;2023-04-25T04:17:06;31.93;;;10.00;;
18623;SDS011;9441;51.420;7.036;2023-04-25T04:18:09;25.63;;;9.40;;
18623;SDS011;9441;51.420;7.036;2023-04-25T04:19:11;26.90;;;9.37;;
18623;SDS011;9441;51.420;7.036;2023-04-25T04:20:17;30.07;;;8.47;;
18623;SDS011;9441;51.420;7.036;2023-04-25T04:21:19;29.30;;;8.60;;
18623;SDS011;9441;51.420;7.036;2023-04-25T04:22:21;33.43;;;9.17;;
18623;SDS011;9441;51.420;7.036;2023-04-25T04:23:24;28.00;;;9.60;;
18623;SDS011;9441;51.420;7.036;2023-04-25T04:24:27;27.97;;;9.90;;
18623;SDS011;9441;51.420;7.036;2023-04-25T04:25:36;32.40;;;9.83;;
18623;SDS011;9441;51.420;7.036;2023-04-25T04:27:04;27.40;;;9.37;;
18623;SDS011;9441;51.420;7.036;2023-04-25T04:28:23;26.20;;;8.97;;
18623;SDS011;9441;51.420;7.036;2023-04-25T04:29:46;28.90;;;10.50;;
18623;SDS011;9441;51.420;7.036;2023-04-25T04:30:50;32.27;;;9.67;;
18623;SDS011;9441;51.420;7.036;2023-04-25T04:31:53;36.50;;;9.93;;
18623;SDS011;9441;51.420;7.036;2023-04-25T04:32:54;29.13;;;9.97;;
18623;SDS011;9441;51.420;7.036;2023-04-25T04:33:56;35.47;;;10.57;;
18623;SDS011;9441;51.420;7.036;2023-04-25T04:34:58;33.03;;;10.40;;
18623;SDS011;9441;51.420;7.036;2023-04-25T04:36:01;28.77;;;9.80;;
18623;SDS011;9441;51.420;7.036;2023-04-25T04:37:03;32.17;;;11.03;;
18623;SDS011;9441;51.420;7.036;2023-04-25T04:38:06;29.03;;;9.27;;
18623;SDS011;9441;51.420;7.036;2023-04-25T04:39:08;29.73;;;10.23;;
18623;SDS011;9441;51.420;7.036;2023-04-25T04:40:18;31.73;;;9.67;;
18623;SDS011;9441;51.420;7.036;2023-04-25T04:41:38;27.87;;;10.07;;
18623;SDS011;9441;51.420;7.036;2023-04-25T04:42:59;32.90;;;10.13;;
18623;SDS011;9441;51.420;7.036;2023-04-25T04:44:12;30.93;;;10.53;;
18623;SDS011;9441;51.420;7.036;2023-04-25T04:45:40;31.43;;;10.27;;
18623;SDS011;9441;51.420;7.036;2023-04-25T04:47:00;35.27;;;10.73;;
18623;SDS011;9441;51.420;7.036;2023-04-25T04:48:30;31.60;;;11.07;;
18623;SDS011;9441;51.420;7.036;2023-04-25T04:49:49;33.60;;;9.70;;
18623;SDS011;9441;51.420;7.036;2023-04-25T04:51:04;30.00;;;9.00;;
18623;SDS011;9441;51.420;7.036;2023-04-25T04:52:26;28.63;;;9.27;;
18623;SDS011;9441;51.420;7.036;2023-04-25T04:53:48;23.63;;;8.43;;
18623;SDS011;9441;51.420;7.036;2023-04-25T04:55:08;23.67;;;8.07;;
18623;SDS011;9441;51.420;7.036;2023-04-25T04:56:46;29.57;;;8.57;;
18623;SDS011;9441;51.420;7.036;2023-04-25T04:57:58;32.00;;;8.67;;
18623;SDS011;9441;51.420;7.036;2023-04-25T04:59:19;26.40;;;8.83;;
18623;SDS011;9441;51.420;7.036;2023-04-25T05:00:48;32.07;;;8.80;;
18623;SDS011;9441;51.420;7.036;2023-04-25T05:02:07;31.13;;;8.23;;
18623;SDS011;9441;51.420;7.036;2023-04-25T05:03:33;30.63;;;7.90;;
18623;SDS011;9441;51.420;7.036;2023-04-25T05:04:51;27.63;;;8.13;;
18623;SDS011;9441;51.420;7.036;2023-04-25T05:06:13;28.30;;;7.03;;
18623;SDS011;9441;51.420;7.036;2023-04-25T05:07:24;29.63;;;8.03;;
18623;SDS011;9441;51.420;7.036;2023-04-25T05:08:45;25.10;;;7.90;;
18623;SDS011;9441;51.420;7.036;2023-04-25T05:09:56;29.27;;;7.83;;
18623;SDS011;9441;51.420;7.036;2023-04-25T05:11:31;18.57;;;6.77;;
18623;SDS011;9441;51.420;7.036;2023-04-25T05:12:51;25.07;;;7.17;;
18623;SDS011;9441;51.420;7.036;2023-04-25T05:14:13;24.17;;;7.37;;
18623;SDS011;9441;51.420;7.036;2023-04-25T05:15:41;21.87;;;7.40;;
18623;SDS011;9441;51.420;7.036;2023-04-25T05:17:01;30.87;;;7.67;;
18623;SDS011;9441;51.420;7.036;2023-04-25T05:18:11;29.67;;;7.07;;
18623;SDS011;9441;51.420;7.036;2023-04-25T05:19:19;26.93;;;8.20;;
18623;SDS011;9441;51.420;7.036;2023-04-25T05:20:27;28.80;;;8.77;;
18623;SDS011;9441;51.420;7.036;2023-04-25T05:21:47;26.37;;;7.37;;
18623;SDS011;9441;51.420;7.036;2023-04-25T05:23:02;18.43;;;6.90;;
18623;SDS011;9441;51.420;7.036;2023-04-25T05:24:27;25.73;;;7.53;;
18623;SDS011;9441;51.420;7.036;2023-04-25T05:25:54;19.10;;;6.80;;
18623;SDS011;9441;51.420;7.036;2023-04-25T05:27:12;21.87;;;7.10;;
18623;SDS011;9441;51.420;7.036;2023-04-25T05:28:39;25.67;;;7.03;;
18623;SDS011;9441;51.420;7.036;2023-04-25T05:29:53;26.73;;;7.37;;
18623;SDS011;9441;51.420;7.036;2023-04-25T05:31:10;29.07;;;7.63;;
18623;SDS011;9441;51.420;7.036;2023-04-25T05:32:25;23.27;;;6.60;;
18623;SDS011;9441;51.420;7.036;2023-04-25T05:33:28;22.87;;;7.20;;
18623;SDS011;9441;51.420;7.036;2023-04-25T05:34:30;24.40;;;6.63;;
18623;SDS011;9441;51.420;7.036;2023-04-25T05:35:35;22.03;;;6.90;;
18623;SDS011;9441;51.420;7.036;2023-04-25T05:36:36;28.60;;;7.13;;
18623;SDS011;9441;51.420;7.036;2023-04-25T05:37:39;26.30;;;6.97;;
18623;SDS011;9441;51.420;7.036;2023-04-25T05:38:45;26.47;;;6.90;;
18623;SDS011;9441;51.420;7.036;2023-04-25T05:39:47;23.83;;;6.97;;
18623;SDS011;9441;51.420;7.036;2023-04-25T05:41:00;23.00;;;6.60;;
18623;SDS011;9441;51.420;7.036;2023-04-25T05:42:21;23.90;;;7.33;;
18623;SDS011;9441;51.420;7.036;2023-04-25T05:43:42;20.87;;;6.87;;
18623;SDS011;9441;51.420;7.036;2023-04-25T05:44:56;22.10;;;6.90;;
18623;SDS011;9441;51.420;7.036;2023-04-25T05:46:32;32.83;;;7.53;;
18623;SDS011;9441;51.420;7.036;2023-04-25T05:47:46;25.73;;;6.77;;
18623;SDS011;9441;51.420;7.036;2023-04-25T05:49:17;36.10;;;7.23;;
18623;SDS011;9441;51.420;7.036;2023-04-25T05:50:38;20.60;;;6.53;;
18623;SDS011;9441;51.420;7.036;2023-04-25T05:52:03;26.53;;;6.80;;
18623;SDS011;9441;51.420;7.036;2023-04-25T05:53:19;25.17;;;6.80;;
18623;SDS011;9441;51.420;7.036;2023-04-25T05:54:28;22.17;;;6.60;;
18623;SDS011;9441;51.420;7.036;2023-04-25T05:55:30;27.17;;;8.43;;
18623;SDS011;9441;51.420;7.036;2023-04-25T05:56:35;20.93;;;7.20;;
18623;SDS011;9441;51.420;7.036;2023-04-25T05:57:36;23.80;;;6.67;;
18623;SDS011;9441;51.420;7.036;2023-04-25T05:58:41;24.87;;;6.80;;
18623;SDS011;9441;51.420;7.036;2023-04-25T05:59:45;25.67;;;7.17;;
18623;SDS011;9441;51.420;7.036;2023-04-25T06:00:48;19.83;;;6.83;;
18623;SDS011;9441;51.420;7.036;2023-04-25T06:01:52;24.37;;;7.33;;
18623;SDS011;9441;51.420;7.036;2023-04-25T06:02:55;29.43;;;7.23;;
18623;SDS011;9441;51.420;7.036;2023-04-25T06:03:57;23.57;;;7.27;;
18623;SDS011;9441;51.420;7.036;2023-04-25T06:04:59;20.27;;;6.50;;
18623;SDS011;9441;51.420;7.036;2023-04-25T06:06:06;26.97;;;7.37;;
18623;SDS011;9441;51.420;7.036;2023-04-25T06:07:08;25.33;;;6.83;;
18623;SDS011;9441;51.420;7.036;2023-04-25T06:08:10;20.90;;;7.47;;
18623;SDS011;9441;51.420;7.036;2023-04-25T06:09:13;29.77;;;6.93;;
18623;SDS011;9441;51.420;7.036;2023-04-25T06:10:15;24.27;;;6.37;;
18623;SDS011;9441;51.420;7.036;2023-04-25T06:11:18;22.23;;;7.43;;
18623;SDS011;9441;51.420;7.036;2023-04-25T06:12:20;23.03;;;7.23;;
18623;SDS011;9441;51.420;7.036;2023-04-25T06:13:24;25.83;;;7.37;;
18623;SDS011;9441;51.420;7.036;2023-04-25T06:14:25;22.97;;;6.60;;
18623;SDS011;9441;51.420;7.036;2023-04-25T06:15:27;20.60;;;6.67;;
18623;SDS011;9441;51.420;7.036;2023-04-25T06:16:28;23.13;;;6.70;;
18623;SDS011;9441;51.420;7.036;2023-04-25T06:17:32;21.00;;;6.27;;
18623;SDS011;9441;51.420;7.036;2023-04-25T06:18:35;22.80;;;6.10;;
18623;SDS011;9441;51.420;7.036;2023-04-25T06:19:37;20.87;;;7.33;;
18623;SDS011;9441;51.420;7.036;2023-04-25T06:20:39;27.30;;;7.10;;
18623;SDS011;9441;51.420;7.036;2023-04-25T06:21:42;19.03;;;6.63;;
18623;SDS011;9441;51.420;7.036;2023-04-25T06:22:45;22.60;;;6.60;;
18623;SDS011;9441;51.420;7.036;2023-04-25T06:23:46;17.87;;;6.47;;
18623;SDS011;9441;51.420;7.036;2023-04-25T06:24:54;21.17;;;6.70;;
18623;SDS011;9441;51.420;7.036;2023-04-25T06:25:57;25.17;;;6.53;;
18623;SDS011;9441;51.420;7.036;2023-04-25T06:27:00;23.47;;;7.13;;
18623;SDS011;9441;51.420;7.036;2023-04-25T06:28:03;20.93;;;6.63;;
18623;SDS011;9441;51.420;7.036;2023-04-25T06:29:05;25.43;;;6.50;;
18623;SDS011;9441;51.420;7.036;2023-04-25T06:30:07;18.43;;;5.97;;
18623;SDS011;9441;51.420;7.036;2023-04-25T06:31:09;24.93;;;6.53;;
18623;SDS011;9441;51.420;7.036;2023-04-25T06:32:11;23.70;;;7.10;;
18623;SDS011;9441;51.420;7.036;2023-04-25T06:33:16;25.57;;;6.23;;
18623;SDS011;9441;51.420;7.036;2023-04-25T06:34:18;29.80;;;7.33;;
18623;SDS011;9441;51.420;7.036;2023-04-25T06:35:21;24.50;;;6.13;;